createdAt,value
2018-09-26T00:00:38.794Z,9.62
2018-09-26T00:03:15.247Z,9.50
2018-09-26T00:05:47.166Z,9.57
2018-09-26T00:08:16.732Z,9.46
2018-09-26T00:10:46.190Z,9.43
2018-09-26T00:13:15.990Z,9.37
2018-09-26T00:15:45.354Z,9.40
2018-09-26T00:18:14.719Z,9.34
2018-09-26T00:20:44.110Z,9.36
2018-09-26T00:23:13.439Z,9.29
2018-09-26T00:25:42.788Z,9.31
2018-09-26T00:28:12.548Z,9.43
2018-09-26T00:30:42.427Z,9.30
2018-09-26T00:33:11.763Z,9.22
2018-09-26T00:35:41.448Z,9.27
2018-09-26T00:38:10.770Z,9.24
2018-09-26T00:40:40.151Z,9.27
2018-09-26T00:43:09.940Z,9.43
2018-09-26T00:45:39.308Z,9.43
2018-09-26T00:48:09.691Z,9.43
2018-09-26T00:50:39.060Z,9.44
2018-09-26T00:53:08.471Z,9.44
2018-09-26T00:55:37.800Z,9.48
2018-09-26T00:58:07.181Z,9.52
2018-09-26T01:00:36.507Z,9.45
2018-09-26T01:03:05.862Z,9.45
2018-09-26T01:05:35.621Z,9.48
2018-09-26T01:08:05.049Z,9.42
2018-09-26T01:10:34.388Z,9.48
2018-09-26T01:13:03.947Z,9.45
2018-09-26T01:15:33.281Z,9.47
2018-09-26T01:18:02.764Z,9.51
2018-09-26T01:20:33.068Z,9.46
2018-09-26T01:23:02.409Z,9.47
2018-09-26T01:25:31.757Z,9.43
2018-09-26T01:28:01.102Z,9.43
2018-09-26T01:30:30.474Z,9.42
2018-09-26T01:32:59.929Z,9.42
2018-09-26T01:35:29.257Z,9.36
2018-09-26T01:38:17.584Z,9.49
2018-09-26T01:40:53.548Z,9.43
2018-09-26T01:43:22.957Z,9.36
2018-09-26T01:45:52.295Z,9.36
2018-09-26T01:48:21.704Z,9.37
2018-09-26T01:50:51.456Z,9.30
2018-09-26T01:53:22.788Z,9.28
2018-09-26T01:55:52.102Z,9.22
2018-09-26T01:58:21.451Z,9.24
2018-09-26T02:00:50.844Z,9.20
2018-09-26T02:03:20.192Z,9.20
2018-09-26T02:05:49.547Z,9.11
2018-09-26T02:08:18.900Z,9.07
2018-09-26T02:10:48.239Z,8.99
2018-09-26T02:13:17.788Z,9.04
2018-09-26T02:15:47.163Z,9.02
2018-09-26T02:18:16.594Z,8.94
2018-09-26T02:20:46.261Z,9.00
2018-09-26T02:23:15.682Z,8.93
2018-09-26T02:25:45.948Z,8.89
2018-09-26T02:28:15.295Z,8.95
2018-09-26T02:30:46.178Z,8.91
2018-09-26T02:33:15.521Z,8.88
2018-09-26T02:35:44.946Z,8.88
2018-09-26T02:38:14.319Z,8.89
2018-09-26T02:40:49.854Z,8.86
2018-09-26T02:43:21.037Z,8.81
2018-09-26T02:45:50.685Z,8.84
2018-09-26T02:48:25.330Z,8.86
2018-09-26T02:50:57.294Z,8.81
2018-09-26T02:53:26.719Z,8.79
2018-09-26T02:55:56.082Z,8.81
2018-09-26T02:58:25.512Z,8.76
2018-09-26T03:00:54.843Z,8.80
2018-09-26T03:03:24.705Z,8.83
2018-09-26T03:05:54.106Z,8.78
2018-09-26T03:08:23.433Z,8.77
2018-09-26T03:10:52.904Z,8.71
2018-09-26T03:13:22.113Z,8.78
2018-09-26T03:15:51.722Z,8.74
2018-09-26T03:18:21.224Z,8.71
2018-09-26T03:20:50.632Z,8.75
2018-09-26T03:23:19.967Z,8.71
2018-09-26T03:25:49.384Z,8.68
2018-09-26T03:28:18.764Z,8.73
2018-09-26T03:30:48.083Z,8.70
2018-09-26T03:33:17.519Z,8.70
2018-09-26T03:35:46.843Z,8.67
2018-09-26T03:38:16.188Z,8.66
2018-09-26T03:40:45.518Z,8.62
2018-09-26T03:43:14.885Z,8.71
2018-09-26T03:45:48.765Z,8.67
2018-09-26T03:48:18.189Z,8.66
2018-09-26T03:50:48.098Z,8.68
2018-09-26T03:53:17.529Z,8.66
2018-09-26T03:55:46.870Z,8.69
2018-09-26T03:58:16.297Z,8.63
2018-09-26T04:00:45.699Z,8.71
2018-09-26T04:03:15.720Z,8.68
2018-09-26T04:05:46.050Z,8.66
2018-09-26T04:08:15.414Z,8.63
2018-09-26T04:10:44.787Z,8.62
2018-09-26T04:13:14.238Z,8.62
2018-09-26T04:15:50.965Z,8.64
2018-09-26T04:18:21.287Z,8.58
2018-09-26T04:20:50.659Z,8.53
2018-09-26T04:23:20.136Z,8.44
2018-09-26T04:25:49.464Z,8.51
2018-09-26T04:28:18.788Z,8.45
2018-09-26T04:30:48.221Z,8.52
2018-09-26T04:33:18.013Z,8.54
2018-09-26T04:35:47.022Z,8.50
2018-09-26T04:38:17.315Z,8.50
2018-09-26T04:40:46.752Z,8.53
2018-09-26T04:43:16.161Z,8.56
2018-09-26T04:45:45.490Z,8.54
2018-09-26T04:48:14.838Z,8.61
2018-09-26T04:50:44.212Z,8.53
2018-09-26T04:53:13.727Z,8.58
2018-09-26T04:55:43.131Z,8.62
2018-09-26T04:58:12.610Z,8.70
2018-09-26T05:00:41.884Z,8.73
2018-09-26T05:03:11.244Z,8.77
2018-09-26T05:05:40.650Z,8.87
2018-09-26T05:08:10.082Z,8.85
2018-09-26T05:10:39.717Z,8.85
2018-09-26T05:13:09.076Z,8.93
2018-09-26T05:15:38.415Z,8.91
2018-09-26T05:18:07.846Z,8.90
2018-09-26T05:20:37.236Z,8.87
2018-09-26T05:23:06.614Z,8.93
2018-09-26T05:25:35.959Z,8.88
2018-09-26T05:28:05.311Z,8.93
2018-09-26T05:30:34.636Z,8.89
2018-09-26T05:33:04.039Z,8.93
2018-09-26T05:35:33.403Z,8.87
2018-09-26T05:38:02.754Z,8.90
2018-09-26T05:40:32.095Z,8.93
2018-09-26T05:43:01.561Z,8.84
2018-09-26T05:45:30.916Z,8.89
2018-09-26T05:48:00.461Z,8.93
2018-09-26T05:50:29.816Z,8.95
2018-09-26T05:52:59.303Z,8.99
2018-09-26T05:55:28.739Z,9.00
2018-09-26T05:57:58.095Z,9.02
2018-09-26T06:00:27.423Z,9.04
2018-09-26T06:02:56.775Z,9.13
2018-09-26T06:05:26.192Z,9.20
2018-09-26T06:07:58.846Z,9.26
2018-09-26T06:10:28.169Z,9.36
2018-09-26T06:12:57.525Z,9.31
2018-09-26T06:15:26.920Z,9.41
2018-09-26T06:17:57.345Z,9.50
2018-09-26T06:20:26.777Z,9.57
2018-09-26T06:22:56.135Z,9.63
2018-09-26T06:25:25.475Z,9.65
2018-09-26T06:27:54.964Z,9.70
2018-09-26T06:30:24.367Z,9.74
2018-09-26T06:32:53.768Z,9.81
2018-09-26T06:35:23.176Z,9.89
2018-09-26T06:37:52.543Z,10.00
2018-09-26T06:40:22.481Z,10.05
2018-09-26T06:42:53.688Z,10.10
2018-09-26T06:45:23.021Z,10.05
2018-09-26T06:47:52.445Z,10.28
2018-09-26T06:50:40.742Z,10.07
2018-09-26T06:53:16.807Z,10.12
2018-09-26T06:55:46.137Z,10.38
2018-09-26T06:58:15.857Z,10.46
2018-09-26T07:00:45.268Z,10.72
2018-09-26T07:03:14.632Z,10.91
2018-09-26T07:05:44.056Z,11.17
2018-09-26T07:08:13.753Z,11.18
2018-09-26T07:10:43.192Z,11.06
2018-09-26T07:13:12.620Z,11.41
2018-09-26T07:15:42.922Z,11.77
2018-09-26T07:18:12.357Z,11.62
2018-09-26T07:20:41.730Z,11.95
2018-09-26T07:23:11.065Z,11.97
2018-09-26T07:25:40.405Z,12.21
2018-09-26T07:28:09.753Z,12.02
2018-09-26T07:30:39.272Z,12.56
2018-09-26T07:33:08.659Z,12.52
2018-09-26T07:35:38.018Z,12.53
2018-09-26T07:38:07.426Z,12.60
2018-09-26T07:40:36.865Z,12.61
2018-09-26T07:43:06.370Z,12.41
2018-09-26T07:45:35.786Z,12.89
2018-09-26T07:48:05.105Z,12.89
2018-09-26T07:50:34.997Z,13.01
2018-09-26T07:53:04.336Z,13.19
2018-09-26T07:55:53.110Z,13.05
2018-09-26T07:58:29.558Z,12.93
2018-09-26T08:00:59.011Z,12.91
2018-09-26T08:03:28.421Z,13.32
2018-09-26T08:05:57.970Z,13.39
2018-09-26T08:08:27.598Z,13.18
2018-09-26T08:10:57.224Z,13.87
2018-09-26T08:13:26.915Z,14.03
2018-09-26T08:15:56.962Z,14.07
2018-09-26T08:18:29.018Z,14.80
2018-09-26T08:20:58.351Z,14.64
2018-09-26T08:23:27.743Z,14.70
2018-09-26T08:25:57.162Z,14.47
2018-09-26T08:28:26.560Z,15.17
2018-09-26T08:30:55.963Z,15.76
2018-09-26T08:33:25.370Z,16.11
2018-09-26T08:35:54.720Z,16.43
2018-09-26T08:38:24.183Z,16.25
2018-09-26T08:40:53.923Z,15.52
2018-09-26T08:43:23.421Z,16.39
2018-09-26T08:45:52.836Z,16.70
2018-09-26T08:48:22.470Z,17.08
2018-09-26T08:50:51.826Z,16.84
2018-09-26T08:53:21.195Z,16.70
2018-09-26T08:55:50.586Z,16.83
2018-09-26T08:58:20.020Z,17.47
2018-09-26T09:02:11.351Z,18.04
2018-09-26T09:04:47.423Z,18.31
2018-09-26T09:07:16.825Z,18.58
2018-09-26T09:09:46.672Z,18.93
2018-09-26T09:12:16.597Z,19.05
2018-09-26T09:14:46.643Z,18.82
2018-09-26T09:17:15.960Z,18.75
2018-09-26T09:19:45.367Z,18.87
2018-09-26T09:22:14.791Z,18.42
2018-09-26T09:24:44.159Z,17.69
2018-09-26T09:27:13.650Z,16.85
2018-09-26T09:29:43.001Z,16.80
2018-09-26T09:32:12.427Z,16.69
2018-09-26T09:34:42.845Z,16.60
2018-09-26T09:37:12.248Z,16.27
2018-09-26T09:39:41.649Z,16.18
2018-09-26T09:42:11.050Z,16.04
2018-09-26T09:44:41.187Z,15.68
2018-09-26T09:47:10.580Z,16.23
2018-09-26T09:49:40.051Z,16.60
2018-09-26T09:52:09.438Z,16.95
2018-09-26T09:54:38.959Z,17.63
2018-09-26T09:57:08.469Z,18.07
2018-09-26T09:59:40.652Z,18.60
2018-09-26T10:02:10.073Z,19.49
2018-09-26T10:04:39.479Z,19.63
2018-09-26T10:07:09.215Z,19.54
2018-09-26T10:09:39.186Z,19.81
2018-09-26T10:12:09.271Z,19.72
2018-09-26T10:14:40.444Z,19.73
2018-09-26T10:17:09.796Z,19.77
2018-09-26T10:19:39.252Z,20.17
2018-09-26T10:22:08.660Z,20.35
2018-09-26T10:24:38.008Z,20.91
2018-09-26T10:27:07.484Z,21.15
2018-09-26T10:29:36.844Z,21.80
2018-09-26T10:32:06.323Z,21.66
2018-09-26T10:34:35.663Z,21.87
2018-09-26T10:37:05.073Z,22.04
2018-09-26T10:39:34.475Z,21.63
2018-09-26T10:42:04.804Z,22.02
2018-09-26T10:44:34.205Z,21.66
2018-09-26T10:47:03.711Z,21.96
2018-09-26T10:49:33.110Z,21.27
2018-09-26T10:52:02.547Z,21.40
2018-09-26T10:54:32.032Z,21.53
2018-09-26T10:57:01.415Z,21.44
2018-09-26T10:59:30.791Z,21.32
2018-09-26T11:02:00.190Z,21.72
2018-09-26T11:04:29.538Z,22.09
2018-09-26T11:06:58.913Z,22.78
2018-09-26T11:09:46.938Z,22.71
2018-09-26T11:12:23.690Z,22.49
2018-09-26T11:14:53.576Z,21.35
2018-09-26T11:17:22.950Z,22.40
2018-09-26T11:19:52.425Z,22.06
2018-09-26T11:22:21.925Z,21.90
2018-09-26T11:24:51.230Z,22.45
2018-09-26T11:27:20.697Z,22.87
2018-09-26T11:29:50.073Z,22.47
2018-09-26T11:32:19.495Z,22.69
2018-09-26T11:34:48.991Z,22.34
2018-09-26T11:37:18.347Z,23.00
2018-09-26T11:39:47.725Z,22.61
2018-09-26T11:42:17.204Z,23.06
2018-09-26T11:44:46.835Z,23.27
2018-09-26T11:47:16.062Z,23.62
2018-09-26T11:49:45.448Z,23.39
2018-09-26T11:52:14.858Z,23.00
2018-09-26T11:54:44.238Z,23.51
2018-09-26T11:57:13.579Z,23.66
2018-09-26T11:59:43.127Z,23.43
2018-09-26T12:02:13.002Z,23.40
2018-09-26T12:04:42.467Z,23.08
2018-09-26T12:07:11.907Z,23.47
2018-09-26T12:09:41.254Z,23.40
2018-09-26T12:12:11.389Z,23.44
2018-09-26T12:14:59.129Z,23.09
2018-09-26T12:17:35.101Z,23.19
2018-09-26T12:20:04.572Z,23.08
2018-09-26T12:22:34.169Z,23.64
2018-09-26T12:25:03.610Z,23.75
2018-09-26T12:27:33.061Z,23.51
2018-09-26T12:30:02.455Z,23.16
2018-09-26T12:32:31.909Z,23.48
2018-09-26T12:35:01.631Z,23.35
2018-09-26T12:37:30.958Z,23.42
2018-09-26T12:40:00.331Z,23.57
2018-09-26T12:42:29.793Z,23.30
2018-09-26T12:44:59.212Z,22.56
2018-09-26T12:47:30.530Z,22.55
2018-09-26T12:49:59.986Z,22.83
2018-09-26T12:52:29.340Z,23.26
2018-09-26T12:54:59.938Z,22.52
2018-09-26T12:57:29.315Z,22.32
2018-09-26T13:00:00.286Z,22.03
2018-09-26T13:02:30.227Z,22.45
2018-09-26T13:04:59.605Z,22.55
2018-09-26T13:07:29.070Z,22.53
2018-09-26T13:09:58.471Z,22.07
2018-09-26T13:12:27.924Z,21.01
2018-09-26T13:14:57.365Z,21.72
2018-09-26T13:17:26.737Z,22.76
2018-09-26T13:20:15.128Z,23.01
2018-09-26T13:22:50.889Z,23.24
2018-09-26T13:25:21.230Z,22.84
2018-09-26T13:27:50.773Z,22.85
2018-09-26T13:30:20.959Z,22.45
2018-09-26T13:32:50.360Z,22.21
2018-09-26T13:35:19.807Z,22.17
2018-09-26T13:37:49.624Z,22.52
2018-09-26T13:40:19.671Z,21.87
2018-09-26T13:42:49.116Z,21.70
2018-09-26T13:45:18.535Z,22.04
2018-09-26T13:47:47.955Z,22.22
2018-09-26T13:50:17.449Z,22.39
2018-09-26T13:52:47.661Z,22.67
2018-09-26T13:55:17.141Z,21.53
2018-09-26T13:57:46.570Z,22.14
2018-09-26T14:00:17.489Z,22.52
2018-09-26T14:02:47.703Z,22.52
2018-09-26T14:05:17.295Z,21.94
2018-09-26T14:07:46.875Z,22.00
2018-09-26T14:10:16.268Z,21.96
2018-09-26T14:12:46.315Z,21.76
2018-09-26T14:15:15.793Z,21.96
2018-09-26T14:17:45.308Z,21.98
2018-09-26T14:20:36.960Z,22.06
2018-09-26T14:23:25.509Z,21.90
2018-09-26T14:26:02.415Z,21.68
2018-09-26T14:28:31.922Z,21.47
2018-09-26T14:31:01.454Z,21.62
2018-09-26T14:33:30.862Z,21.24
2018-09-26T14:36:00.362Z,21.28
2018-09-26T14:38:30.050Z,21.32
2018-09-26T14:40:59.528Z,21.28
2018-09-26T14:43:29.036Z,21.20
2018-09-26T14:45:58.706Z,21.13
2018-09-26T14:48:28.188Z,21.07
2018-09-26T14:50:57.646Z,21.16
2018-09-26T14:53:27.345Z,21.04
2018-09-26T14:55:56.823Z,20.81
2018-09-26T14:58:26.338Z,20.55
2018-09-26T15:00:56.017Z,20.68
2018-09-26T15:03:25.536Z,20.50
2018-09-26T15:05:55.201Z,20.39
2018-09-26T15:08:24.892Z,20.25
2018-09-26T15:10:54.372Z,20.26
2018-09-26T15:13:23.812Z,20.15
2018-09-26T15:15:53.396Z,20.06
2018-09-26T15:18:22.970Z,19.96
2018-09-26T15:20:52.468Z,19.86
2018-09-26T15:23:22.591Z,19.73
2018-09-26T15:25:52.991Z,19.69
2018-09-26T15:28:41.812Z,19.63
2018-09-26T15:31:15.920Z,19.52
2018-09-26T15:33:45.639Z,19.52
2018-09-26T15:36:15.264Z,19.38
2018-09-26T15:38:45.414Z,19.45
2018-09-26T15:41:14.959Z,19.32
2018-09-26T15:43:44.517Z,19.33
2018-09-26T15:46:14.114Z,19.29
2018-09-26T15:48:43.670Z,19.21
2018-09-26T15:51:13.195Z,19.21
2018-09-26T15:53:42.732Z,19.20
2018-09-26T15:56:12.356Z,19.12
2018-09-26T15:58:42.576Z,19.10
2018-09-26T16:01:12.454Z,19.02
2018-09-26T16:06:36.214Z,18.93
2018-09-26T16:09:06.360Z,18.95
2018-09-26T16:11:35.853Z,18.90
2018-09-26T16:14:05.261Z,18.86
2018-09-26T16:16:34.781Z,18.82
2018-09-26T16:19:04.198Z,18.78
2018-09-26T16:21:33.634Z,18.80
2018-09-26T16:24:03.616Z,18.77
2018-09-26T16:26:32.982Z,18.70
2018-09-26T16:29:03.334Z,18.68
2018-09-26T16:31:51.915Z,18.61
2018-09-26T16:34:27.584Z,18.61
2018-09-26T16:36:57.762Z,18.56
2018-09-26T16:39:27.212Z,18.49
2018-09-26T16:41:56.659Z,18.46
2018-09-26T16:44:26.263Z,18.39
2018-09-26T16:46:55.741Z,18.35
2018-09-26T16:49:25.189Z,18.30
2018-09-26T16:51:54.595Z,18.25
2018-09-26T16:54:24.064Z,18.19
2018-09-26T16:56:53.532Z,18.18
2018-09-26T16:59:22.939Z,18.10
2018-09-26T17:04:27.095Z,17.95
2018-09-26T17:06:56.387Z,17.90
2018-09-26T17:09:25.850Z,17.79
2018-09-26T17:11:55.253Z,17.70
2018-09-26T17:14:24.705Z,17.64
2018-09-26T17:16:54.078Z,17.61
2018-09-26T17:19:23.576Z,17.54
2018-09-26T17:21:52.947Z,17.44
2018-09-26T17:24:22.441Z,17.40
2018-09-26T17:26:51.817Z,17.33
2018-09-26T17:29:21.200Z,17.21
2018-09-26T17:31:50.611Z,17.11
2018-09-26T17:34:21.142Z,16.99
2018-09-26T17:36:50.682Z,16.95
2018-09-26T17:39:20.094Z,16.83
2018-09-26T17:41:49.623Z,16.73
2018-09-26T17:44:19.082Z,16.65
2018-09-26T17:46:48.483Z,16.55
2018-09-26T17:49:18.006Z,16.46
2018-09-26T17:51:47.350Z,16.42
2018-09-26T17:54:16.713Z,16.37
2018-09-26T17:56:46.076Z,16.28
2018-09-26T17:59:15.559Z,16.23
2018-09-26T18:01:44.959Z,16.17
2018-09-26T18:04:14.529Z,16.13
2018-09-26T18:06:43.958Z,16.08
2018-09-26T18:09:13.665Z,16.05
2018-09-26T18:11:43.103Z,15.99
2018-09-26T18:14:12.499Z,15.90
2018-09-26T18:16:41.904Z,15.82
2018-09-26T18:19:11.410Z,15.78
2018-09-26T18:21:41.000Z,15.78
2018-09-26T18:24:10.414Z,15.86
2018-09-26T18:26:39.828Z,15.88
2018-09-26T18:29:09.308Z,15.92
2018-09-26T18:31:38.860Z,15.88
2018-09-26T18:34:08.232Z,15.86
2018-09-26T18:36:37.664Z,15.82
2018-09-26T18:39:10.441Z,15.85
2018-09-26T18:41:40.729Z,15.77
2018-09-26T18:44:11.112Z,15.78
2018-09-26T18:46:40.520Z,15.70
2018-09-26T18:49:10.006Z,15.64
2018-09-26T18:51:39.467Z,15.61
2018-09-26T18:54:08.988Z,15.53
2018-09-26T18:56:38.462Z,15.50
2018-09-26T18:59:08.065Z,15.43
2018-09-26T19:01:37.588Z,15.32
2018-09-26T19:04:10.936Z,15.21
2018-09-26T19:06:40.683Z,15.07
2018-09-26T19:09:11.408Z,14.96
2018-09-26T19:11:40.875Z,14.86
2018-09-26T19:14:10.382Z,14.74
2018-09-26T19:16:40.093Z,14.66
2018-09-26T19:19:09.611Z,14.58
2018-09-26T19:21:39.199Z,14.45
2018-09-26T19:24:08.889Z,14.37
2018-09-26T19:26:38.671Z,14.32
2018-09-26T19:29:08.901Z,14.27
2018-09-26T19:31:38.396Z,14.20
2018-09-26T19:34:07.937Z,14.08
2018-09-26T19:36:37.399Z,14.01
2018-09-26T19:39:12.527Z,13.97
2018-09-26T19:41:42.148Z,13.88
2018-09-26T19:44:11.661Z,13.78
2018-09-26T19:46:41.065Z,13.74
2018-09-26T19:49:10.637Z,13.81
2018-09-26T19:51:40.345Z,13.88
2018-09-26T19:54:10.498Z,14.00
2018-09-26T19:56:40.022Z,14.06
2018-09-26T19:59:28.718Z,14.06
2018-09-26T20:01:58.457Z,14.16
2018-09-26T20:04:27.944Z,14.04
2018-09-26T20:06:57.692Z,13.93
2018-09-26T20:09:29.754Z,14.13
2018-09-26T20:11:59.264Z,14.17
2018-09-26T20:14:28.859Z,14.22
2018-09-26T20:16:58.719Z,14.27
2018-09-26T20:19:28.825Z,14.28
2018-09-26T20:21:58.586Z,14.20
2018-09-26T20:24:28.229Z,14.24
2018-09-26T20:26:57.957Z,14.18
2018-09-26T20:29:27.696Z,14.18
2018-09-26T20:31:57.120Z,14.14
2018-09-26T20:34:26.747Z,14.17
2018-09-26T20:36:56.334Z,14.26
2018-09-26T20:39:30.275Z,14.11
2018-09-26T20:41:59.727Z,14.07
2018-09-26T20:44:29.581Z,14.01
2018-09-26T20:46:59.766Z,13.98
2018-09-26T20:49:29.499Z,13.89
2018-09-26T20:51:59.335Z,13.90
2018-09-26T20:54:28.863Z,13.81
2018-09-26T20:56:59.214Z,13.82
2018-09-26T20:59:29.615Z,13.75
2018-09-26T21:02:13.870Z,13.64
2018-09-26T21:04:43.576Z,13.66
2018-09-26T21:07:13.044Z,13.69
2018-09-26T21:09:42.488Z,13.74
2018-09-26T21:12:12.138Z,13.74
2018-09-26T21:14:41.654Z,13.64
2018-09-26T21:17:12.429Z,13.58
2018-09-26T21:19:41.969Z,13.58
2018-09-26T21:22:11.413Z,13.62
2018-09-26T21:24:41.079Z,13.63
2018-09-26T21:27:10.452Z,13.61
2018-09-26T21:29:39.972Z,13.51
2018-09-26T21:32:09.479Z,13.57
2018-09-26T21:34:38.929Z,13.56
2018-09-26T21:37:08.361Z,13.49
2018-09-26T21:39:57.127Z,13.44
2018-09-26T21:42:29.296Z,13.44
2018-09-26T21:44:58.804Z,13.47
2018-09-26T21:47:28.142Z,13.37
2018-09-26T21:49:57.829Z,13.32
2018-09-26T21:52:27.234Z,13.36
2018-09-26T21:54:56.586Z,13.29
2018-09-26T21:57:26.005Z,13.27
2018-09-26T21:59:55.509Z,13.31
2018-09-26T22:02:24.869Z,13.21
2018-09-26T22:04:54.308Z,13.11
2018-09-26T22:07:23.716Z,13.17
2018-09-26T22:09:53.520Z,13.23
2018-09-26T22:12:22.939Z,13.16
2018-09-26T22:14:52.342Z,13.12
2018-09-26T22:17:21.691Z,13.11
2018-09-26T22:19:51.121Z,13.11
2018-09-26T22:22:20.552Z,13.09
2018-09-26T22:24:50.036Z,13.10
2018-09-26T22:27:19.466Z,13.09
2018-09-26T22:29:48.971Z,13.07
2018-09-26T22:32:18.320Z,13.00
2018-09-26T22:34:47.679Z,13.03
2018-09-26T22:37:17.284Z,13.01
2018-09-26T22:39:46.647Z,12.99
2018-09-26T22:42:16.091Z,12.97
2018-09-26T22:44:47.714Z,12.92
2018-09-26T22:47:17.150Z,12.91
2018-09-26T22:49:46.557Z,12.86
2018-09-26T22:52:15.897Z,12.84
2018-09-26T22:54:45.263Z,12.77
2018-09-26T22:57:14.673Z,12.72
2018-09-26T22:59:44.089Z,12.75
2018-09-26T23:02:13.580Z,12.66
2018-09-26T23:04:43.464Z,12.73
2018-09-26T23:07:13.040Z,12.62
2018-09-26T23:09:42.507Z,12.58
2018-09-26T23:12:11.878Z,12.56
2018-09-26T23:14:41.242Z,12.48
2018-09-26T23:17:10.611Z,12.42
2018-09-26T23:19:40.015Z,12.42
2018-09-26T23:22:09.434Z,12.35
2018-09-26T23:24:38.858Z,12.27
2018-09-26T23:27:08.328Z,12.31
2018-09-26T23:29:37.715Z,12.21
2018-09-26T23:32:07.134Z,12.20
2018-09-26T23:34:36.543Z,12.21
2018-09-26T23:37:05.951Z,12.21
2018-09-26T23:39:35.309Z,12.21
2018-09-26T23:42:05.740Z,12.18
2018-09-26T23:44:37.024Z,12.13
2018-09-26T23:47:15.635Z,12.13
2018-09-26T23:49:45.969Z,12.09
2018-09-26T23:52:15.473Z,12.04
2018-09-26T23:54:44.942Z,12.07
2018-09-26T23:57:14.312Z,11.99
2018-09-26T23:59:43.780Z,11.98
